Wetterdaten: Woche 22.03.10 - 28.03.10 (KW12)
Datum Zeit Temperatur Luftfeuchte Luftdruck Niederschlag Wind Richtung Sonnenschein Solar Taupunkt Windchill Windben
22.03.2010 00:00 7.7 C 85 % 1022.4 hPa 0.0 l/m 0.0 km/h (0 Bft) NW 0.00 h 0 W/m 5.5 C 7.7 C 0.4 km/h (0 Bft)
22.03.2010 01:00 7.2 C 87 % 1022.3 hPa 0.0 l/m 0.0 km/h (0 Bft) N 0.00 h 0 W/m 5.2 C 7.2 C 0.2 km/h (0 Bft)
22.03.2010 02:00 6.3 C 88 % 1022.3 hPa 0.0 l/m 0.1 km/h (0 Bft) NW 0.00 h 0 W/m 4.4 C 6.3 C 0.2 km/h (0 Bft)
22.03.2010 03:00 5.3 C 89 % 1022.4 hPa 0.0 l/m 0.2 km/h (0 Bft) NW 0.00 h 0 W/m 3.6 C 5.3 C 0.4 km/h (0 Bft)
22.03.2010 04:00 5.1 C 91 % 1022.6 hPa 0.0 l/m 0.0 km/h (0 Bft) N 0.00 h 0 W/m 3.7 C 5.1 C 0.2 km/h (0 Bft)
22.03.2010 05:00 4.7 C 91 % 1022.5 hPa 0.0 l/m 0.2 km/h (0 Bft) NW 0.00 h 0 W/m 3.4 C 4.7 C 1.0 km/h (0 Bft)
22.03.2010 06:00 4.1 C 91 % 1022.5 hPa 0.0 l/m 0.1 km/h (0 Bft) NW 0.12 h 19 W/m 2.8 C 4.1 C 0.4 km/h (0 Bft)
22.03.2010 07:00 4.1 C 92 % 1022.8 hPa 0.0 l/m 0.2 km/h (0 Bft) NW 0.43 h 93 W/m 2.9 C 4.1 C 0.7 km/h (0 Bft)
22.03.2010 08:00 5.4 C 90 % 1022.5 hPa 0.0 l/m 0.2 km/h (0 Bft) NW 0.82 h 216 W/m 3.9 C 5.4 C 0.9 km/h (0 Bft)
22.03.2010 09:00 7.5 C 82 % 1022.1 hPa 0.0 l/m 1.2 km/h (1 Bft) NW 0.93 h 364 W/m 4.6 C 7.5 C 2.9 km/h (1 Bft)
22.03.2010 10:00 10.2 C 72 % 1021.9 hPa 0.0 l/m 1.6 km/h (1 Bft) W-NW 0.97 h 443 W/m 5.5 C 10.2 C 3.8 km/h (1 Bft)
22.03.2010 11:00 12.5 C 67 % 1021.5 hPa 0.2 l/m 2.0 km/h (1 Bft) W 0.97 h 481 W/m 6.5 C 12.5 C 4.1 km/h (1 Bft)
22.03.2010 12:00 14.0 C 62 % 1020.9 hPa 0.0 l/m 2.9 km/h (1 Bft) W-NW 1.00 h 568 W/m 6.8 C 14.0 C 5.0 km/h (1 Bft)
22.03.2010 13:00 15.1 C 56 % 1020.2 hPa 0.0 l/m 2.7 km/h (1 Bft) W-NW 1.00 h 567 W/m 6.5 C 15.1 C 5.0 km/h (1 Bft)
22.03.2010 14:00 16.0 C 50 % 1019.7 hPa 0.0 l/m 1.1 km/h (1 Bft) W-NW 0.87 h 405 W/m 5.6 C 16.0 C 3.0 km/h (1 Bft)
22.03.2010 15:00 16.3 C 44 % 1019.5 hPa 0.0 l/m 1.0 km/h (0 Bft) S-SW 1.00 h 374 W/m 4.0 C 16.3 C 2.6 km/h (1 Bft)
22.03.2010 16:00 16.8 C 40 % 1019.2 hPa 0.0 l/m 1.1 km/h (1 Bft) W-NW 0.98 h 267 W/m 3.1 C 16.8 C 2.4 km/h (1 Bft)
22.03.2010 17:00 16.0 C 43 % 1019.1 hPa 0.0 l/m 1.2 km/h (1 Bft) N-NW 0.13 h 95 W/m 3.3 C 16.0 C 2.5 km/h (1 Bft)
22.03.2010 18:00 14.3 C 52 % 1019.3 hPa 0.0 l/m 0.3 km/h (0 Bft) O-SO 0.00 h 19 W/m 4.5 C 14.3 C 0.7 km/h (0 Bft)
22.03.2010 19:00 11.1 C 68 % 1019.9 hPa 0.0 l/m 3.3 km/h (1 Bft) O-SO 0.00 h 0 W/m 5.4 C 11.1 C 4.6 km/h (1 Bft)
22.03.2010 20:00 9.3 C 75 % 1020.5 hPa 0.0 l/m 0.3 km/h (0 Bft) O-SO 0.00 h 0 W/m 5.0 C 9.3 C 1.3 km/h (1 Bft)
22.03.2010 21:00 7.9 C 79 % 1020.7 hPa 0.0 l/m 0.5 km/h (0 Bft) O-SO 0.00 h 0 W/m 4.5 C 7.9 C 1.1 km/h (1 Bft)
22.03.2010 22:00 6.7 C 83 % 1020.6 hPa 0.0 l/m 0.3 km/h (0 Bft) O-SO 0.00 h 0 W/m 4.1 C 6.7 C 0.8 km/h (0 Bft)
22.03.2010 23:00 5.9 C 86 % 1020.5 hPa 0.0 l/m 1.3 km/h (1 Bft) O-SO 0.00 h 0 W/m 3.7 C 5.9 C 2.0 km/h (1 Bft)
23.03.2010 00:00 5.0 C 89 % 1020.4 hPa 0.0 l/m 0.8 km/h (0 Bft) O-SO 0.00 h 0 W/m 3.2 C 5.0 C 1.6 km/h (1 Bft)
23.03.2010 01:00 4.4 C 90 % 1020.6 hPa 0.0 l/m 0.3 km/h (0 Bft) O-SO 0.00 h 0 W/m 2.9 C 4.4 C 0.8 km/h (0 Bft)
23.03.2010 02:00 3.7 C 91 % 1020.6 hPa 0.0 l/m 1.4 km/h (1 Bft) O-SO 0.00 h 0 W/m 2.3 C 3.6 C 2.0 km/h (1 Bft)
23.03.2010 03:00 3.1 C 92 % 1020.4 hPa 0.0 l/m 0.5 km/h (0 Bft) O-SO 0.00 h 0 W/m 1.9 C 3.1 C 1.1 km/h (0 Bft)
23.03.2010 04:00 2.7 C 93 % 1020.6 hPa 0.0 l/m 0.4 km/h (0 Bft) O-SO 0.00 h 0 W/m 1.7 C 2.7 C 1.0 km/h (0 Bft)
23.03.2010 05:00 2.2 C 94 % 1021.0 hPa 0.0 l/m 0.6 km/h (0 Bft) O-SO 0.00 h 0 W/m 1.3 C 2.2 C 0.9 km/h (0 Bft)
23.03.2010 06:00 1.8 C 95 % 1021.5 hPa 0.0 l/m 0.0 km/h (0 Bft) O-SO 0.03 h 13 W/m 1.1 C 1.8 C 0.0 km/h (0 Bft)
23.03.2010 07:00 1.8 C 95 % 1022.3 hPa 0.0 l/m 0.3 km/h (0 Bft) O-SO 0.10 h 73 W/m 1.2 C 1.8 C 0.6 km/h (0 Bft)
23.03.2010 08:00 4.0 C 96 % 1022.5 hPa 0.0 l/m 0.1 km/h (0 Bft) O-SO 1.00 h 267 W/m 3.5 C 4.0 C 0.5 km/h (0 Bft)
23.03.2010 09:00 6.7 C 90 % 1022.2 hPa 0.0 l/m 0.8 km/h (0 Bft) N 1.00 h 427 W/m 5.1 C 6.7 C 2.2 km/h (1 Bft)
23.03.2010 10:00 10.4 C 72 % 1021.6 hPa 0.0 l/m 1.5 km/h (1 Bft) NW 1.00 h 556 W/m 5.4 C 10.4 C 3.2 km/h (1 Bft)
23.03.2010 11:00 13.4 C 59 % 1020.7 hPa 0.0 l/m 2.9 km/h (1 Bft) NW 1.00 h 644 W/m 5.6 C 13.4 C 4.8 km/h (1 Bft)
23.03.2010 12:00 15.8 C 50 % 1019.6 hPa 0.0 l/m 3.8 km/h (1 Bft) N-NW 1.00 h 676 W/m 5.2 C 15.8 C 6.2 km/h (2 Bft)
23.03.2010 13:00 17.4 C 46 % 1018.5 hPa 0.0 l/m 2.2 km/h (1 Bft) O-SO 1.00 h 658 W/m 5.5 C 17.4 C 4.3 km/h (1 Bft)
23.03.2010 14:00 18.5 C 41 % 1017.5 hPa 0.0 l/m 2.8 km/h (1 Bft) O-SO 1.00 h 585 W/m 4.8 C 18.5 C 5.4 km/h (1 Bft)
23.03.2010 15:00 19.1 C 35 % 1016.9 hPa 0.0 l/m 3.0 km/h (1 Bft) N-NW 1.00 h 471 W/m 3.3 C 19.1 C 5.5 km/h (1 Bft)
23.03.2010 16:00 18.9 C 31 % 1016.2 hPa 0.0 l/m 2.4 km/h (1 Bft) O-SO 1.00 h 324 W/m 1.3 C 18.9 C 5.2 km/h (1 Bft)
23.03.2010 17:00 17.6 C 34 % 1015.8 hPa 0.0 l/m 2.7 km/h (1 Bft) O-SO 0.17 h 80 W/m 1.7 C 17.6 C 5.4 km/h (1 Bft)
23.03.2010 18:00 15.8 C 43 % 1015.6 hPa 0.0 l/m 2.2 km/h (1 Bft) O-SO 0.13 h 25 W/m 3.2 C 15.8 C 3.7 km/h (1 Bft)
23.03.2010 19:00 13.7 C 52 % 1015.8 hPa 0.0 l/m 0.1 km/h (0 Bft) O-SO 0.00 h 0 W/m 3.9 C 13.7 C 0.7 km/h (0 Bft)
23.03.2010 20:00 11.0 C 66 % 1016.1 hPa 0.0 l/m 1.5 km/h (1 Bft) O-SO 0.00 h 0 W/m 4.7 C 11.0 C 2.6 km/h (1 Bft)
23.03.2010 21:00 8.8 C 74 % 1016.2 hPa 0.0 l/m 0.7 km/h (0 Bft) SO 0.00 h 0 W/m 4.5 C 8.7 C 1.4 km/h (1 Bft)
23.03.2010 22:00 7.3 C 77 % 1016.0 hPa 0.0 l/m 0.7 km/h (0 Bft) SO 0.00 h 0 W/m 3.5 C 7.3 C 1.3 km/h (1 Bft)
23.03.2010 23:00 6.5 C 77 % 1015.7 hPa 0.0 l/m 1.1 km/h (0 Bft) SO 0.00 h 0 W/m 2.7 C 6.5 C 2.2 km/h (1 Bft)
24.03.2010 00:00 6.0 C 81 % 1015.5 hPa 0.0 l/m 0.6 km/h (0 Bft) SO 0.00 h 0 W/m 2.9 C 6.0 C 1.4 km/h (1 Bft)
24.03.2010 01:00 5.0 C 84 % 1015.2 hPa 0.0 l/m 1.4 km/h (1 Bft) SO 0.00 h 0 W/m 2.5 C 5.0 C 2.4 km/h (1 Bft)
24.03.2010 02:00 4.3 C 86 % 1014.8 hPa 0.0 l/m 0.5 km/h (0 Bft) O 0.00 h 0 W/m 2.2 C 4.3 C 1.4 km/h (1 Bft)
24.03.2010 03:00 3.8 C 88 % 1014.6 hPa 0.0 l/m 0.6 km/h (0 Bft) O 0.00 h 0 W/m 2.0 C 3.8 C 1.5 km/h (1 Bft)
24.03.2010 04:00 3.5 C 89 % 1014.5 hPa 0.0 l/m 1.0 km/h (0 Bft) O 0.00 h 0 W/m 1.8 C 3.5 C 1.9 km/h (1 Bft)
24.03.2010 05:00 2.9 C 89 % 1014.8 hPa 0.0 l/m 0.2 km/h (0 Bft) O 0.00 h 0 W/m 1.3 C 2.9 C 0.7 km/h (0 Bft)
24.03.2010 06:00 2.3 C 90 % 1015.1 hPa 0.0 l/m 0.5 km/h (0 Bft) O 0.10 h 20 W/m 0.8 C 2.3 C 1.1 km/h (0 Bft)
24.03.2010 07:00 2.9 C 92 % 1015.6 hPa 0.0 l/m 0.3 km/h (0 Bft) O 0.77 h 111 W/m 1.7 C 2.9 C 1.0 km/h (0 Bft)
24.03.2010 08:00 5.4 C 88 % 1015.6 hPa 0.0 l/m 0.3 km/h (0 Bft) O 1.00 h 238 W/m 3.5 C 5.4 C 0.9 km/h (0 Bft)
24.03.2010 09:00 9.0 C 73 % 1015.3 hPa 0.0 l/m 0.7 km/h (0 Bft) O-SO 1.00 h 428 W/m 4.4 C 9.0 C 2.1 km/h (1 Bft)
24.03.2010 10:00 11.8 C 62 % 1014.8 hPa 0.0 l/m 2.0 km/h (1 Bft) NW 1.00 h 556 W/m 4.7 C 11.8 C 3.9 km/h (1 Bft)
24.03.2010 11:00 14.6 C 56 % 1013.9 hPa 0.0 l/m 2.0 km/h (1 Bft) SW 1.00 h 634 W/m 6.0 C 14.6 C 4.0 km/h (1 Bft)
24.03.2010 12:00 17.5 C 49 % 1012.8 hPa 0.0 l/m 2.1 km/h (1 Bft) W 1.00 h 661 W/m 6.7 C 17.5 C 4.2 km/h (1 Bft)
24.03.2010 13:00 18.8 C 45 % 1011.8 hPa 0.0 l/m 2.3 km/h (1 Bft) SO 1.00 h 655 W/m 6.6 C 18.8 C 4.3 km/h (1 Bft)
24.03.2010 14:00 20.5 C 34 % 1010.9 hPa 0.0 l/m 1.9 km/h (1 Bft) W 1.00 h 585 W/m 4.1 C 20.5 C 4.0 km/h (1 Bft)
24.03.2010 15:00 21.4 C 30 % 1010.2 hPa 0.0 l/m 1.9 km/h (1 Bft) O-SO 1.00 h 467 W/m 3.1 C 21.4 C 4.2 km/h (1 Bft)
24.03.2010 16:00 21.6 C 30 % 1009.9 hPa 0.0 l/m 1.8 km/h (1 Bft) SO 1.00 h 319 W/m 3.2 C 21.6 C 3.9 km/h (1 Bft)
24.03.2010 17:00 20.3 C 34 % 1009.7 hPa 0.0 l/m 2.0 km/h (1 Bft) O-SO 0.08 h 76 W/m 3.7 C 20.3 C 4.2 km/h (1 Bft)
24.03.2010 18:00 17.8 C 39 % 1009.8 hPa 0.0 l/m 4.6 km/h (1 Bft) O-SO 0.00 h 16 W/m 3.8 C 17.8 C 6.3 km/h (2 Bft)
24.03.2010 19:00 15.2 C 51 % 1010.0 hPa 0.0 l/m 1.4 km/h (1 Bft) O-SO 0.00 h 0 W/m 5.0 C 15.2 C 2.2 km/h (1 Bft)
24.03.2010 20:00 13.1 C 59 % 1010.4 hPa 0.0 l/m 0.5 km/h (0 Bft) O-SO 0.00 h 0 W/m 5.4 C 13.1 C 1.1 km/h (1 Bft)
24.03.2010 21:00 10.9 C 68 % 1010.3 hPa 0.0 l/m 0.7 km/h (0 Bft) O-SO 0.00 h 0 W/m 5.3 C 10.9 C 1.5 km/h (1 Bft)
24.03.2010 22:00 9.4 C 73 % 1010.3 hPa 0.0 l/m 0.8 km/h (0 Bft) O-SO 0.00 h 0 W/m 4.7 C 9.4 C 1.6 km/h (1 Bft)
24.03.2010 23:00 8.2 C 78 % 1010.2 hPa 0.0 l/m 1.4 km/h (1 Bft) O-SO 0.00 h 0 W/m 4.6 C 8.2 C 2.7 km/h (1 Bft)
25.03.2010 00:00 7.4 C 81 % 1010.1 hPa 0.0 l/m 0.4 km/h (0 Bft) O-SO 0.00 h 0 W/m 4.3 C 7.4 C 1.2 km/h (1 Bft)
25.03.2010 01:00 6.6 C 83 % 1010.1 hPa 0.0 l/m 0.2 km/h (0 Bft) O-SO 0.00 h 0 W/m 3.8 C 6.6 C 0.7 km/h (0 Bft)
25.03.2010 02:00 5.9 C 85 % 1009.8 hPa 0.0 l/m 0.5 km/h (0 Bft) O-SO 0.00 h 0 W/m 3.5 C 5.9 C 1.2 km/h (1 Bft)
25.03.2010 03:00 5.4 C 86 % 1009.5 hPa 0.0 l/m 1.1 km/h (1 Bft) O-SO 0.00 h 0 W/m 3.3 C 5.4 C 2.1 km/h (1 Bft)
25.03.2010 04:00 5.3 C 87 % 1009.5 hPa 0.0 l/m 1.4 km/h (1 Bft) O-SO 0.00 h 0 W/m 3.4 C 5.2 C 2.1 km/h (1 Bft)
25.03.2010 05:00 5.1 C 88 % 1009.9 hPa 0.0 l/m 0.7 km/h (0 Bft) O 0.00 h 0 W/m 3.3 C 5.1 C 1.6 km/h (1 Bft)
25.03.2010 06:00 5.3 C 89 % 1009.9 hPa 0.0 l/m 0.9 km/h (0 Bft) SO 0.00 h 15 W/m 3.5 C 5.3 C 1.9 km/h (1 Bft)
25.03.2010 07:00 5.6 C 89 % 1009.8 hPa 0.0 l/m 0.1 km/h (0 Bft) O-NO 0.00 h 61 W/m 3.9 C 5.6 C 0.2 km/h (0 Bft)
25.03.2010 08:00 6.9 C 87 % 1009.8 hPa 0.0 l/m 0.6 km/h (0 Bft) SW 0.40 h 216 W/m 4.9 C 6.9 C 1.6 km/h (1 Bft)
25.03.2010 09:00 9.4 C 75 % 1009.4 hPa 0.0 l/m 0.9 km/h (0 Bft) NW 0.12 h 222 W/m 5.2 C 9.4 C 2.3 km/h (1 Bft)
25.03.2010 10:00 11.3 C 67 % 1009.4 hPa 0.0 l/m 1.4 km/h (1 Bft) NW 0.40 h 388 W/m 5.5 C 11.3 C 3.0 km/h (1 Bft)
25.03.2010 11:00 14.9 C 54 % 1008.8 hPa 0.0 l/m 1.6 km/h (1 Bft) W 0.68 h 478 W/m 5.7 C 14.9 C 3.4 km/h (1 Bft)
25.03.2010 12:00 17.0 C 48 % 1007.9 hPa 0.0 l/m 2.4 km/h (1 Bft) W-SW 0.50 h 486 W/m 5.9 C 17.0 C 4.3 km/h (1 Bft)
25.03.2010 13:00 19.1 C 42 % 1007.2 hPa 0.0 l/m 4.0 km/h (1 Bft) N-NW 0.38 h 436 W/m 5.8 C 19.1 C 6.3 km/h (2 Bft)
25.03.2010 14:00 20.7 C 37 % 1006.8 hPa 0.0 l/m 3.1 km/h (1 Bft) N-NW 0.33 h 389 W/m 5.3 C 20.7 C 5.3 km/h (1 Bft)
25.03.2010 15:00 21.3 C 36 % 1006.4 hPa 0.0 l/m 2.7 km/h (1 Bft) NW 0.75 h 395 W/m 5.5 C 21.3 C 5.1 km/h (1 Bft)
25.03.2010 16:00 20.5 C 37 % 1006.3 hPa 0.0 l/m 3.1 km/h (1 Bft) W-NW 0.00 h 104 W/m 5.2 C 20.5 C 5.4 km/h (1 Bft)
25.03.2010 17:00 19.4 C 42 % 1006.8 hPa 0.0 l/m 1.0 km/h (0 Bft) W-NW 0.00 h 65 W/m 6.0 C 19.4 C 2.4 km/h (1 Bft)
25.03.2010 18:00 17.8 C 52 % 1007.2 hPa 0.0 l/m 3.2 km/h (1 Bft) O-SO 0.00 h 13 W/m 7.9 C 17.8 C 4.5 km/h (1 Bft)
25.03.2010 19:00 15.5 C 61 % 1007.5 hPa 0.0 l/m 2.6 km/h (1 Bft) O-SO 0.00 h 0 W/m 8.1 C 15.5 C 3.9 km/h (1 Bft)
25.03.2010 20:00 13.8 C 67 % 1008.0 hPa 0.0 l/m 0.5 km/h (0 Bft) O 0.00 h 0 W/m 7.8 C 13.8 C 1.5 km/h (1 Bft)
25.03.2010 21:00 12.2 C 71 % 1008.3 hPa 0.0 l/m 1.0 km/h (0 Bft) SO 0.00 h 0 W/m 7.1 C 12.2 C 1.9 km/h (1 Bft)
25.03.2010 22:00 11.3 C 73 % 1008.5 hPa 0.0 l/m 1.4 km/h (1 Bft) SO 0.00 h 0 W/m 6.6 C 11.3 C 2.2 km/h (1 Bft)
25.03.2010 23:00 10.7 C 75 % 1008.6 hPa 0.0 l/m 0.8 km/h (0 Bft) SO 0.00 h 0 W/m 6.4 C 10.7 C 1.6 km/h (1 Bft)
26.03.2010 00:00 9.5 C 75 % 1008.8 hPa 0.0 l/m 2.0 km/h (1 Bft) O-SO 0.00 h 0 W/m 5.3 C 9.4 C 3.3 km/h (1 Bft)
26.03.2010 01:00 8.7 C 75 % 1008.7 hPa 0.0 l/m 2.8 km/h (1 Bft) SO 0.00 h 0 W/m 4.6 C 8.5 C 4.2 km/h (1 Bft)
26.03.2010 02:00 7.3 C 79 % 1008.5 hPa 0.0 l/m 1.4 km/h (1 Bft) SO 0.00 h 0 W/m 4.0 C 7.3 C 2.9 km/h (1 Bft)
26.03.2010 03:00 6.4 C 83 % 1007.7 hPa 0.0 l/m 0.5 km/h (0 Bft) O 0.00 h 0 W/m 3.8 C 6.4 C 1.2 km/h (1 Bft)
26.03.2010 04:00 6.0 C 85 % 1007.3 hPa 0.0 l/m 1.5 km/h (1 Bft) O 0.00 h 0 W/m 3.7 C 6.0 C 2.4 km/h (1 Bft)
26.03.2010 05:00 5.4 C 87 % 1007.0 hPa 0.0 l/m 1.2 km/h (1 Bft) O 0.00 h 0 W/m 3.4 C 5.3 C 2.5 km/h (1 Bft)
26.03.2010 06:00 5.3 C 88 % 1006.8 hPa 0.0 l/m 1.1 km/h (1 Bft) O-SO 0.00 h 23 W/m 3.4 C 5.3 C 2.3 km/h (1 Bft)
26.03.2010 07:00 6.2 C 88 % 1006.3 hPa 0.0 l/m 1.3 km/h (1 Bft) O-SO 0.95 h 136 W/m 4.3 C 6.1 C 2.4 km/h (1 Bft)
26.03.2010 08:00 9.2 C 80 % 1004.9 hPa 0.0 l/m 0.8 km/h (0 Bft) O-SO 1.00 h 280 W/m 5.8 C 9.2 C 2.0 km/h (1 Bft)
26.03.2010 09:00 12.2 C 66 % 1004.0 hPa 0.0 l/m 1.4 km/h (1 Bft) N-NW 1.00 h 433 W/m 6.1 C 12.2 C 3.1 km/h (1 Bft)
26.03.2010 10:00 11.6 C 65 % 1005.8 hPa 0.0 l/m 28.0 km/h (4 Bft) W 0.73 h 439 W/m 5.3 C 11.3 C 40.3 km/h (6 Bft)
26.03.2010 11:00 9.0 C 75 % 1008.4 hPa 0.0 l/m 19.5 km/h (3 Bft) W 0.00 h 113 W/m 4.9 C 6.3 C 29.6 km/h (5 Bft)
26.03.2010 12:00 7.9 C 86 % 1010.3 hPa 2.2 l/m 11.0 km/h (2 Bft) W 0.00 h 77 W/m 5.7 C 6.1 C 17.3 km/h (3 Bft)
26.03.2010 13:00 7.4 C 89 % 1011.2 hPa 0.8 l/m 7.4 km/h (2 Bft) SW 0.00 h 126 W/m 5.6 C 6.1 C 11.5 km/h (2 Bft)
26.03.2010 14:00 7.1 C 89 % 1011.7 hPa 0.4 l/m 6.2 km/h (2 Bft) SW 0.00 h 108 W/m 5.3 C 6.1 C 10.2 km/h (2 Bft)
26.03.2010 15:00 7.2 C 87 % 1011.7 hPa 0.2 l/m 5.2 km/h (1 Bft) SW 0.00 h 84 W/m 5.2 C 6.5 C 8.3 km/h (2 Bft)
26.03.2010 16:00 7.5 C 86 % 1011.7 hPa 0.0 l/m 1.1 km/h (0 Bft) W-SW 0.00 h 102 W/m 5.4 C 7.5 C 2.5 km/h (1 Bft)
26.03.2010 17:00 8.2 C 83 % 1011.7 hPa 0.0 l/m 0.7 km/h (0 Bft) N-NW 0.42 h 98 W/m 5.5 C 8.2 C 1.4 km/h (1 Bft)
26.03.2010 18:00 8.4 C 83 % 1012.5 hPa 0.0 l/m 1.5 km/h (1 Bft) NW 0.03 h 28 W/m 5.7 C 8.3 C 3.0 km/h (1 Bft)
26.03.2010 19:00 7.5 C 85 % 1012.7 hPa 0.0 l/m 1.8 km/h (1 Bft) S-SO 0.00 h 0 W/m 5.1 C 7.5 C 3.7 km/h (1 Bft)
26.03.2010 20:00 7.3 C 84 % 1012.9 hPa 0.4 l/m 3.1 km/h (1 Bft) W-SW 0.00 h 0 W/m 4.8 C 7.0 C 5.7 km/h (1 Bft)
26.03.2010 21:00 6.8 C 87 % 1013.1 hPa 0.6 l/m 1.7 km/h (1 Bft) S-SO 0.00 h 0 W/m 4.8 C 6.7 C 3.3 km/h (1 Bft)
26.03.2010 22:00 6.2 C 88 % 1013.1 hPa 0.0 l/m 1.6 km/h (1 Bft) SO 0.00 h 0 W/m 4.4 C 6.1 C 3.2 km/h (1 Bft)
26.03.2010 23:00 6.0 C 89 % 1013.3 hPa 1.2 l/m 6.1 km/h (2 Bft) W-NW 0.00 h 0 W/m 4.3 C 4.9 C 9.7 km/h (2 Bft)
27.03.2010 00:00 5.6 C 90 % 1013.7 hPa 0.8 l/m 6.7 km/h (2 Bft) W-NW 0.00 h 0 W/m 4.1 C 4.3 C 10.8 km/h (2 Bft)
27.03.2010 01:00 5.4 C 90 % 1013.3 hPa 0.8 l/m 1.7 km/h (1 Bft) NW 0.00 h 0 W/m 3.9 C 5.3 C 3.3 km/h (1 Bft)
27.03.2010 02:00 5.3 C 91 % 1013.2 hPa 0.0 l/m 3.4 km/h (1 Bft) SW 0.00 h 0 W/m 4.0 C 4.8 C 6.6 km/h (2 Bft)
27.03.2010 03:00 5.0 C 91 % 1012.6 hPa 0.0 l/m 4.9 km/h (1 Bft) SW 0.00 h 0 W/m 3.7 C 4.2 C 8.6 km/h (2 Bft)
27.03.2010 04:00 4.6 C 91 % 1012.2 hPa 0.0 l/m 4.1 km/h (1 Bft) S-SO 0.00 h 0 W/m 3.3 C 4.0 C 7.9 km/h (2 Bft)
27.03.2010 05:00 4.3 C 90 % 1011.5 hPa 0.2 l/m 0.5 km/h (0 Bft) O 0.00 h 0 W/m 2.8 C 4.3 C 1.7 km/h (1 Bft)
27.03.2010 06:00 4.0 C 91 % 1011.3 hPa 0.0 l/m 2.6 km/h (1 Bft) NO 0.00 h 26 W/m 2.6 C 3.7 C 3.9 km/h (1 Bft)
27.03.2010 07:00 4.5 C 92 % 1011.5 hPa 0.0 l/m 0.1 km/h (0 Bft) O-SO 0.00 h 53 W/m 3.3 C 4.5 C 0.5 km/h (0 Bft)
27.03.2010 08:00 5.0 C 93 % 1011.8 hPa 0.6 l/m 1.8 km/h (1 Bft) S-SO 0.00 h 68 W/m 3.8 C 4.8 C 3.9 km/h (1 Bft)
27.03.2010 09:00 6.1 C 92 % 1011.6 hPa 0.0 l/m 4.5 km/h (1 Bft) SW 0.33 h 289 W/m 4.9 C 5.5 C 8.6 km/h (2 Bft)
27.03.2010 10:00 8.4 C 79 % 1010.9 hPa 0.0 l/m 9.5 km/h (2 Bft) SW 0.85 h 523 W/m 5.1 C 6.9 C 16.2 km/h (3 Bft)
27.03.2010 11:00 10.3 C 68 % 1010.0 hPa 0.0 l/m 11.2 km/h (2 Bft) SW 1.00 h 716 W/m 4.7 C 9.9 C 18.1 km/h (3 Bft)
27.03.2010 12:00 12.4 C 58 % 1008.7 hPa 0.0 l/m 9.6 km/h (2 Bft) SW 1.00 h 746 W/m 4.4 C 12.4 C 15.6 km/h (3 Bft)
27.03.2010 13:00 13.5 C 51 % 1007.9 hPa 0.0 l/m 11.7 km/h (2 Bft) SW 0.75 h 608 W/m 3.5 C 13.5 C 18.1 km/h (3 Bft)
27.03.2010 14:00 13.0 C 50 % 1007.5 hPa 0.0 l/m 11.0 km/h (2 Bft) SW 0.32 h 353 W/m 2.8 C 13.0 C 17.0 km/h (3 Bft)
27.03.2010 15:00 13.1 C 48 % 1007.4 hPa 0.0 l/m 11.9 km/h (2 Bft) W-SW 0.27 h 244 W/m 2.4 C 13.1 C 18.4 km/h (3 Bft)
27.03.2010 16:00 12.2 C 53 % 1007.8 hPa 0.0 l/m 13.5 km/h (3 Bft) W-SW 0.08 h 132 W/m 2.8 C 12.2 C 20.3 km/h (4 Bft)
27.03.2010 17:00 9.6 C 73 % 1009.3 hPa 0.2 l/m 11.9 km/h (2 Bft) W 0.03 h 44 W/m 4.9 C 8.8 C 17.7 km/h (3 Bft)
27.03.2010 18:00 8.8 C 74 % 1010.1 hPa 0.2 l/m 7.1 km/h (2 Bft) SW 0.00 h 12 W/m 4.4 C 7.9 C 11.2 km/h (2 Bft)
27.03.2010 19:00 8.2 C 78 % 1011.2 hPa 0.4 l/m 5.8 km/h (2 Bft) SW 0.00 h 0 W/m 4.5 C 7.5 C 9.0 km/h (2 Bft)
27.03.2010 20:00 7.5 C 85 % 1012.4 hPa 1.0 l/m 2.7 km/h (1 Bft) S-SW 0.00 h 0 W/m 5.2 C 7.4 C 5.0 km/h (1 Bft)
27.03.2010 21:00 7.2 C 89 % 1012.9 hPa 0.0 l/m 1.9 km/h (1 Bft) S 0.00 h 0 W/m 5.4 C 7.2 C 4.5 km/h (1 Bft)
27.03.2010 22:00 7.3 C 88 % 1012.9 hPa 0.2 l/m 5.2 km/h (1 Bft) S-SW 0.00 h 0 W/m 5.6 C 6.7 C 8.3 km/h (2 Bft)
27.03.2010 23:00 7.3 C 89 % 1013.1 hPa 0.2 l/m 4.0 km/h (1 Bft) S-SO 0.00 h 0 W/m 5.6 C 7.0 C 7.5 km/h (2 Bft)
28.03.2010 00:00 7.1 C 90 % 1013.5 hPa 2.2 l/m 6.0 km/h (2 Bft) W-SW 0.00 h 0 W/m 5.6 C 6.2 C 9.6 km/h (2 Bft)
28.03.2010 01:00 6.9 C 91 % 1014.0 hPa 0.2 l/m 4.6 km/h (1 Bft) S-SW 0.00 h 0 W/m 5.5 C 6.3 C 7.8 km/h (2 Bft)
28.03.2010 03:00 6.8 C 92 % 1014.2 hPa 1.0 l/m 3.3 km/h (1 Bft) SW 0.00 h 0 W/m 5.5 C 6.5 C 5.6 km/h (1 Bft)
28.03.2010 04:00 6.6 C 91 % 1014.5 hPa 0.6 l/m 11.6 km/h (2 Bft) W 0.00 h 0 W/m 5.2 C 4.5 C 17.8 km/h (3 Bft)
28.03.2010 05:00 6.5 C 90 % 1015.0 hPa 0.0 l/m 4.5 km/h (1 Bft) SW 0.00 h 0 W/m 5.0 C 5.8 C 7.3 km/h (2 Bft)
28.03.2010 06:00 6.5 C 92 % 1015.3 hPa 0.2 l/m 5.7 km/h (1 Bft) SW 0.00 h 0 W/m 5.2 C 5.6 C 8.7 km/h (2 Bft)
28.03.2010 07:00 6.6 C 91 % 1015.7 hPa 0.2 l/m 3.4 km/h (1 Bft) S-SW 0.00 h 17 W/m 5.3 C 6.5 C 6.1 km/h (2 Bft)
28.03.2010 08:00 6.7 C 92 % 1016.3 hPa 0.2 l/m 5.7 km/h (1 Bft) S-SW 0.22 h 88 W/m 5.5 C 5.8 C 8.8 km/h (2 Bft)
28.03.2010 09:00 7.7 C 91 % 1016.7 hPa 0.0 l/m 5.3 km/h (1 Bft) SW 0.87 h 296 W/m 6.4 C 7.1 C 8.0 km/h (2 Bft)
28.03.2010 10:00 9.2 C 82 % 1016.7 hPa 0.2 l/m 4.7 km/h (1 Bft) W-SW 0.42 h 298 W/m 6.3 C 8.9 C 8.0 km/h (2 Bft)
28.03.2010 11:00 9.6 C 77 % 1016.4 hPa 0.0 l/m 4.4 km/h (1 Bft) W 0.20 h 288 W/m 5.7 C 9.4 C 7.4 km/h (2 Bft)
28.03.2010 12:00 10.8 C 68 % 1015.5 hPa 0.0 l/m 10.3 km/h (2 Bft) W-SW 0.38 h 408 W/m 5.1 C 10.8 C 16.3 km/h (3 Bft)
28.03.2010 13:00 11.6 C 65 % 1015.0 hPa 0.0 l/m 9.0 km/h (2 Bft) W 0.18 h 292 W/m 5.2 C 11.6 C 14.3 km/h (3 Bft)
28.03.2010 14:00 11.0 C 73 % 1014.6 hPa 0.0 l/m 5.6 km/h (1 Bft) W-NW 0.12 h 289 W/m 6.4 C 11.0 C 9.3 km/h (2 Bft)
28.03.2010 15:00 11.0 C 73 % 1014.0 hPa 0.0 l/m 6.0 km/h (2 Bft) W-NW 0.12 h 284 W/m 6.3 C 11.0 C 9.1 km/h (2 Bft)
28.03.2010 16:00 10.9 C 79 % 1013.4 hPa 0.4 l/m 2.9 km/h (1 Bft) N-NW 0.00 h 157 W/m 7.4 C 10.9 C 5.2 km/h (1 Bft)
28.03.2010 17:00 9.9 C 84 % 1013.4 hPa 0.8 l/m 3.3 km/h (1 Bft) SW 0.00 h 79 W/m 7.2 C 9.6 C 6.0 km/h (2 Bft)
28.03.2010 18:00 9.1 C 85 % 1013.3 hPa 1.0 l/m 7.8 km/h (2 Bft) SW 0.00 h 38 W/m 6.7 C 8.0 C 11.6 km/h (2 Bft)
28.03.2010 19:00 8.7 C 89 % 1013.5 hPa 1.6 l/m 3.2 km/h (1 Bft) W-SW 0.00 h 8 W/m 7.0 C 8.5 C 5.3 km/h (1 Bft)
28.03.2010 20:00 8.5 C 91 % 1013.5 hPa 0.8 l/m 0.3 km/h (0 Bft) S-SW 0.00 h 0 W/m 7.1 C 8.5 C 1.1 km/h (0 Bft)
28.03.2010 21:00 8.6 C 93 % 1013.4 hPa 0.4 l/m 0.3 km/h (0 Bft) S-SW 0.00 h 0 W/m 7.5 C 8.6 C 1.0 km/h (0 Bft)
28.03.2010 22:00 8.7 C 93 % 1013.4 hPa 0.2 l/m 0.5 km/h (0 Bft) SW 0.00 h 0 W/m 7.7 C 8.7 C 1.8 km/h (1 Bft)
28.03.2010 23:00 8.7 C 94 % 1013.2 hPa 0.2 l/m 0.8 km/h (0 Bft) W-SW 0.00 h 0 W/m 7.8 C 8.7 C 2.3 km/h (1 Bft)
Min-Datum _ 23.03.10 23.03.10 26.03.10 - 22.03.10 - - - 23.03.10 23.03.10 22.03.10
_ Min-Zeit 07:00 16:55 09:15 - 00:00 - - - 17:00 07:03 00:03
Minimum _ 1.5 C 27 % 1003.8 hPa - 0.0 km/h (0 Bft) - - - -1.0 C 1.5 C 0.0 km/h (0 Bft)
Max-Datum _ 25.03.10 23.03.10 22.03.10 26.03.10 26.03.10 - 22.03.10 25.03.10 25.03.10 25.03.10 26.03.10
_ Max-Zeit 15:47 08:23 07:00 12:03 10:23 - 06:37 12:52 18:26 15:47 10:22
Maximum _ 21.9 C 97 % 1022.8 hPa 2.2 l/m 52.1 km/h
W (7 Bft)
- 0.02 h 912 W/m 9.3 C 21.9 C 78.2 km/h
W-NW (9 Bft)
Durchschnitt _ 9.5 C 75 % 1013.8 hPa #20.8 l/m 2.9 km/h (1 Bft) O-SO #43:26 h 151 W/m 4.6 C 9.3 C 5.0 km/h (1 Bft)
© Kaiko 2010